sensor_id;sensor_type;location;lat;lon;timestamp;pressure;altitude;pressure_sealevel;temperature;humidity
70314;BME280;57725;47.526;18.986;2023-04-21T00:01:38;99784.56;;;14.48;92.65
70314;BME280;57725;47.526;18.986;2023-04-21T00:04:04;99784.56;;;14.48;92.71
70314;BME280;57725;47.526;18.986;2023-04-21T00:06:33;99783.72;;;14.48;92.67
70314;BME280;57725;47.526;18.986;2023-04-21T00:09:02;99784.66;;;14.47;92.62
70314;BME280;57725;47.526;18.986;2023-04-21T00:11:29;99775.91;;;14.46;92.88
70314;BME280;57725;47.526;18.986;2023-04-21T00:13:54;99769.81;;;14.46;92.99
70314;BME280;57725;47.526;18.986;2023-04-21T00:16:24;99766.31;;;14.45;92.74
70314;BME280;57725;47.526;18.986;2023-04-21T00:18:50;99773.28;;;14.46;92.89
70314;BME280;57725;47.526;18.986;2023-04-21T00:21:15;99776.09;;;14.43;93.21
70314;BME280;57725;47.526;18.986;2023-04-21T00:23:41;99766.41;;;14.44;92.93
70314;BME280;57725;47.526;18.986;2023-04-21T00:26:09;99766.41;;;14.44;92.85
70314;BME280;57725;47.526;18.986;2023-04-21T00:28:39;99767.34;;;14.43;92.73
70314;BME280;57725;47.526;18.986;2023-04-21T00:31:07;99767.47;;;14.41;92.94
70314;BME280;57725;47.526;18.986;2023-04-21T00:33:33;99762.22;;;14.41;93.08
70314;BME280;57725;47.526;18.986;2023-04-21T00:36:00;99763.13;;;14.40;92.90
70314;BME280;57725;47.526;18.986;2023-04-21T00:38:26;99758.72;;;14.41;93.22
70314;BME280;57725;47.526;18.986;2023-04-21T00:40:51;99759.66;;;14.40;92.99
70314;BME280;57725;47.526;18.986;2023-04-21T00:43:16;99764.91;;;14.40;93.19
70314;BME280;57725;47.526;18.986;2023-04-21T00:45:44;99766.75;;;14.38;93.27
70314;BME280;57725;47.526;18.986;2023-04-21T00:48:10;99764.97;;;14.38;93.33
70314;BME280;57725;47.526;18.986;2023-04-21T00:50:38;99766.84;;;14.36;93.45
70314;BME280;57725;47.526;18.986;2023-04-21T00:53:07;99758.97;;;14.36;93.42
70314;BME280;57725;47.526;18.986;2023-04-21T00:55:33;99764.22;;;14.36;93.38
70314;BME280;57725;47.526;18.986;2023-04-21T00:57:59;99756.41;;;14.35;93.33
70314;BME280;57725;47.526;18.986;2023-04-21T01:00:25;99757.25;;;14.35;93.33
70314;BME280;57725;47.526;18.986;2023-04-21T01:02:50;99770.50;;;14.34;93.44
70314;BME280;57725;47.526;18.986;2023-04-21T01:05:16;99755.56;;;14.34;93.68
70314;BME280;57725;47.526;18.986;2023-04-21T01:07:42;99754.81;;;14.32;93.54
70314;BME280;57725;47.526;18.986;2023-04-21T01:10:11;99758.38;;;14.31;93.51
70314;BME280;57725;47.526;18.986;2023-04-21T01:12:44;99760.06;;;14.32;93.58
70314;BME280;57725;47.526;18.986;2023-04-21T01:15:15;99753.97;;;14.32;93.67
70314;BME280;57725;47.526;18.986;2023-04-21T01:17:43;99762.78;;;14.31;93.42
70314;BME280;57725;47.526;18.986;2023-04-21T01:20:13;99761.00;;;14.31;93.81
70314;BME280;57725;47.526;18.986;2023-04-21T01:22:40;99758.50;;;14.30;93.65
70314;BME280;57725;47.526;18.986;2023-04-21T01:25:07;99753.31;;;14.28;93.47
70314;BME280;57725;47.526;18.986;2023-04-21T01:27:33;99751.53;;;14.29;93.60
70314;BME280;57725;47.526;18.986;2023-04-21T01:30:01;99749.00;;;14.27;93.87
70314;BME280;57725;47.526;18.986;2023-04-21T01:32:30;99753.31;;;14.28;93.71
70314;BME280;57725;47.526;18.986;2023-04-21T01:35:05;99756.03;;;14.27;93.92
70314;BME280;57725;47.526;18.986;2023-04-21T01:37:38;99752.56;;;14.26;93.88
70314;BME280;57725;47.526;18.986;2023-04-21T01:40:05;99755.19;;;14.26;93.53
70314;BME280;57725;47.526;18.986;2023-04-21T01:42:32;99748.25;;;14.25;93.74
70314;BME280;57725;47.526;18.986;2023-04-21T01:44:59;99750.94;;;14.24;93.71
70314;BME280;57725;47.526;18.986;2023-04-21T01:47:25;99749.16;;;14.24;93.72
70314;BME280;57725;47.526;18.986;2023-04-21T01:49:51;99751.03;;;14.22;93.69
70314;BME280;57725;47.526;18.986;2023-04-21T01:52:16;99747.56;;;14.22;93.79
70314;BME280;57725;47.526;18.986;2023-04-21T01:54:42;99753.66;;;14.22;93.88
70314;BME280;57725;47.526;18.986;2023-04-21T01:57:10;99754.59;;;14.21;93.69
70314;BME280;57725;47.526;18.986;2023-04-21T01:59:35;99746.72;;;14.21;93.69
70314;BME280;57725;47.526;18.986;2023-04-21T02:02:01;99746.72;;;14.21;93.56
70314;BME280;57725;47.526;18.986;2023-04-21T02:04:29;99744.19;;;14.20;93.73
70314;BME280;57725;47.526;18.986;2023-04-21T02:06:55;99742.41;;;14.20;93.73
70314;BME280;57725;47.526;18.986;2023-04-21T02:09:25;99749.44;;;14.20;93.72
70314;BME280;57725;47.526;18.986;2023-04-21T02:11:50;99747.78;;;14.19;93.82
70314;BME280;57725;47.526;18.986;2023-04-21T02:14:18;99748.72;;;14.18;93.57
70314;BME280;57725;47.526;18.986;2023-04-21T02:16:45;99753.13;;;14.17;93.75
70314;BME280;57725;47.526;18.986;2023-04-21T02:19:13;99755.75;;;14.17;93.76
70314;BME280;57725;47.526;18.986;2023-04-21T02:21:39;99754.06;;;14.16;93.71
70314;BME280;57725;47.526;18.986;2023-04-21T02:24:04;99756.69;;;14.16;93.76
70314;BME280;57725;47.526;18.986;2023-04-21T02:26:34;99751.50;;;14.14;93.62
70314;BME280;57725;47.526;18.986;2023-04-21T02:29:00;99751.59;;;14.13;93.75
70314;BME280;57725;47.526;18.986;2023-04-21T02:31:25;99751.50;;;14.14;93.63
70314;BME280;57725;47.526;18.986;2023-04-21T02:33:51;99758.53;;;14.14;93.81
70314;BME280;57725;47.526;18.986;2023-04-21T02:36:18;99756.00;;;14.12;93.74
70314;BME280;57725;47.526;18.986;2023-04-21T02:38:44;99758.63;;;14.12;93.71
70314;BME280;57725;47.526;18.986;2023-04-21T02:41:09;99754.31;;;14.11;93.75
70314;BME280;57725;47.526;18.986;2023-04-21T02:43:35;99756.09;;;14.11;93.63
70314;BME280;57725;47.526;18.986;2023-04-21T02:46:07;99754.41;;;14.10;93.62
70314;BME280;57725;47.526;18.986;2023-04-21T02:48:36;99756.19;;;14.09;93.46
70314;BME280;57725;47.526;18.986;2023-04-21T02:51:01;99754.41;;;14.10;93.69
70314;BME280;57725;47.526;18.986;2023-04-21T02:53:29;99758.81;;;14.09;93.74
70314;BME280;57725;47.526;18.986;2023-04-21T02:55:55;99751.00;;;14.08;93.42
70314;BME280;57725;47.526;18.986;2023-04-21T02:58:20;99755.44;;;14.07;93.68
70314;BME280;57725;47.526;18.986;2023-04-21T03:00:50;99760.72;;;14.07;93.62
70314;BME280;57725;47.526;18.986;2023-04-21T03:03:16;99751.97;;;14.07;93.87
70314;BME280;57725;47.526;18.986;2023-04-21T03:05:41;99759.00;;;14.06;93.62
70314;BME280;57725;47.526;18.986;2023-04-21T03:08:09;99761.63;;;14.06;93.60
70314;BME280;57725;47.526;18.986;2023-04-21T03:10:37;99770.47;;;14.05;93.51
70314;BME280;57725;47.526;18.986;2023-04-21T03:13:03;99758.34;;;14.03;93.48
70314;BME280;57725;47.526;18.986;2023-04-21T03:15:29;99768.84;;;14.03;93.84
70314;BME280;57725;47.526;18.986;2023-04-21T03:17:54;99770.72;;;14.01;93.58
70314;BME280;57725;47.526;18.986;2023-04-21T03:20:20;99770.78;;;13.99;93.60
70314;BME280;57725;47.526;18.986;2023-04-21T03:22:45;99771.66;;;14.00;93.62
70314;BME280;57725;47.526;18.986;2023-04-21T03:25:11;99782.16;;;14.00;93.54
70314;BME280;57725;47.526;18.986;2023-04-21T03:27:39;99773.50;;;13.98;93.42
70314;BME280;57725;47.526;18.986;2023-04-21T03:30:05;99777.06;;;13.97;93.66
70314;BME280;57725;47.526;18.986;2023-04-21T03:32:31;99769.38;;;13.94;93.40
70314;BME280;57725;47.526;18.986;2023-04-21T03:34:56;99772.03;;;13.94;93.62
70314;BME280;57725;47.526;18.986;2023-04-21T03:37:21;99767.63;;;13.94;93.72
70314;BME280;57725;47.526;18.986;2023-04-21T03:39:47;99770.31;;;13.93;93.60
70314;BME280;57725;47.526;18.986;2023-04-21T03:42:12;99774.72;;;13.92;93.49
70314;BME280;57725;47.526;18.986;2023-04-21T03:44:40;99775.56;;;13.93;93.73
70314;BME280;57725;47.526;18.986;2023-04-21T03:47:05;99777.44;;;13.91;93.62
70314;BME280;57725;47.526;18.986;2023-04-21T03:49:33;99785.41;;;13.89;93.56
70314;BME280;57725;47.526;18.986;2023-04-21T03:52:01;99779.41;;;13.87;93.56
70314;BME280;57725;47.526;18.986;2023-04-21T03:54:26;99777.63;;;13.88;93.60
70314;BME280;57725;47.526;18.986;2023-04-21T03:56:54;99775.91;;;13.87;93.66
70314;BME280;57725;47.526;18.986;2023-04-21T03:59:19;99782.09;;;13.86;93.45
70314;BME280;57725;47.526;18.986;2023-04-21T04:01:47;99788.22;;;13.86;93.57
70314;BME280;57725;47.526;18.986;2023-04-21T04:04:14;99791.75;;;13.85;93.74
70314;BME280;57725;47.526;18.986;2023-04-21T04:06:42;99791.75;;;13.85;93.44
70314;BME280;57725;47.526;18.986;2023-04-21T04:09:11;99790.19;;;13.83;93.45
70314;BME280;57725;47.526;18.986;2023-04-21T04:11:36;99797.13;;;13.84;93.54
70314;BME280;57725;47.526;18.986;2023-04-21T04:14:01;99787.56;;;13.83;93.55
70314;BME280;57725;47.526;18.986;2023-04-21T04:16:27;99794.69;;;13.81;93.57
70314;BME280;57725;47.526;18.986;2023-04-21T04:18:53;99792.97;;;13.80;93.60
70314;BME280;57725;47.526;18.986;2023-04-21T04:21:21;99805.28;;;13.79;93.56
70314;BME280;57725;47.526;18.986;2023-04-21T04:23:51;99803.56;;;13.78;93.44
70314;BME280;57725;47.526;18.986;2023-04-21T04:26:19;99807.97;;;13.77;93.57
70314;BME280;57725;47.526;18.986;2023-04-21T04:28:46;99808.91;;;13.76;93.47
70314;BME280;57725;47.526;18.986;2023-04-21T04:31:12;99809.00;;;13.75;93.44
70314;BME280;57725;47.526;18.986;2023-04-21T04:33:43;99809.06;;;13.73;93.57
70314;BME280;57725;47.526;18.986;2023-04-21T04:36:09;99812.56;;;13.74;93.10
70314;BME280;57725;47.526;18.986;2023-04-21T04:38:37;99815.19;;;13.74;93.25
70314;BME280;57725;47.526;18.986;2023-04-21T04:41:03;99815.28;;;13.72;93.35
70314;BME280;57725;47.526;18.986;2023-04-21T04:43:29;99819.69;;;13.72;93.37
70314;BME280;57725;47.526;18.986;2023-04-21T04:46:00;99814.53;;;13.70;93.30
70314;BME280;57725;47.526;18.986;2023-04-21T04:48:27;99815.47;;;13.69;93.39
70314;BME280;57725;47.526;18.986;2023-04-21T04:50:55;99817.25;;;13.69;93.43
70314;BME280;57725;47.526;18.986;2023-04-21T04:53:20;99819.03;;;13.68;93.26
70314;BME280;57725;47.526;18.986;2023-04-21T04:55:51;99814.69;;;13.67;93.37
70314;BME280;57725;47.526;18.986;2023-04-21T04:58:21;99819.03;;;13.68;93.47
70314;BME280;57725;47.526;18.986;2023-04-21T05:00:46;99820.78;;;13.68;93.28
70314;BME280;57725;47.526;18.986;2023-04-21T05:03:12;99808.59;;;13.67;93.39
70314;BME280;57725;47.526;18.986;2023-04-21T05:05:37;99812.06;;;13.67;93.51
70314;BME280;57725;47.526;18.986;2023-04-21T05:08:05;99806.13;;;13.64;93.07
70314;BME280;57725;47.526;18.986;2023-04-21T05:10:32;99812.22;;;13.64;93.30
70314;BME280;57725;47.526;18.986;2023-04-21T05:13:00;99814.84;;;13.64;93.49
70314;BME280;57725;47.526;18.986;2023-04-21T05:15:25;99814.09;;;13.62;93.33
70314;BME280;57725;47.526;18.986;2023-04-21T05:17:51;99814.09;;;13.62;93.39
70314;BME280;57725;47.526;18.986;2023-04-21T05:20:19;99809.78;;;13.61;93.30
70314;BME280;57725;47.526;18.986;2023-04-21T05:22:45;99815.13;;;13.60;93.31
70314;BME280;57725;47.526;18.986;2023-04-21T05:25:11;99815.06;;;13.61;93.47
70314;BME280;57725;47.526;18.986;2023-04-21T05:27:43;99810.91;;;13.57;93.31
70314;BME280;57725;47.526;18.986;2023-04-21T05:30:11;99813.44;;;13.59;93.31
70314;BME280;57725;47.526;18.986;2023-04-21T05:32:36;99816.16;;;13.57;93.30
70314;BME280;57725;47.526;18.986;2023-04-21T05:35:02;99812.59;;;13.58;93.37
70314;BME280;57725;47.526;18.986;2023-04-21T05:37:29;99804.72;;;13.58;93.40
70314;BME280;57725;47.526;18.986;2023-04-21T05:39:57;99813.69;;;13.54;93.57
70314;BME280;57725;47.526;18.986;2023-04-21T05:42:22;99810.97;;;13.56;93.04
70314;BME280;57725;47.526;18.986;2023-04-21T05:44:48;99819.78;;;13.55;93.21
70314;BME280;57725;47.526;18.986;2023-04-21T05:47:13;99818.94;;;13.54;93.35
70314;BME280;57725;47.526;18.986;2023-04-21T05:49:41;99815.53;;;13.52;93.61
70314;BME280;57725;47.526;18.986;2023-04-21T05:52:08;99819.88;;;13.53;93.37
70314;BME280;57725;47.526;18.986;2023-04-21T05:54:36;99821.66;;;13.53;93.70
70314;BME280;57725;47.526;18.986;2023-04-21T05:57:07;99819.94;;;13.52;93.71
70314;BME280;57725;47.526;18.986;2023-04-21T05:59:33;99827.75;;;13.53;93.73
70314;BME280;57725;47.526;18.986;2023-04-21T06:01:58;99822.56;;;13.52;93.65
70314;BME280;57725;47.526;18.986;2023-04-21T06:04:28;99829.53;;;13.53;93.71
70314;BME280;57725;47.526;18.986;2023-04-21T06:06:54;99831.31;;;13.52;93.64
70314;BME280;57725;47.526;18.986;2023-04-21T06:09:24;99820.03;;;13.50;93.42
70314;BME280;57725;47.526;18.986;2023-04-21T06:11:49;99827.91;;;13.50;93.49
70314;BME280;57725;47.526;18.986;2023-04-21T06:14:18;99830.66;;;13.49;93.65
70314;BME280;57725;47.526;18.986;2023-04-21T06:16:43;99828.88;;;13.49;93.54
70314;BME280;57725;47.526;18.986;2023-04-21T06:19:11;99824.47;;;13.50;93.57
70314;BME280;57725;47.526;18.986;2023-04-21T06:21:36;99827.91;;;13.50;93.67
70314;BME280;57725;47.526;18.986;2023-04-21T06:24:02;99819.09;;;13.51;94.50
70314;BME280;57725;47.526;18.986;2023-04-21T06:26:28;99825.97;;;13.54;94.81
70314;BME280;57725;47.526;18.986;2023-04-21T06:28:59;99837.25;;;13.56;94.80
70314;BME280;57725;47.526;18.986;2023-04-21T06:31:26;99827.50;;;13.58;94.99
70314;BME280;57725;47.526;18.986;2023-04-21T06:33:52;99830.81;;;13.61;95.20
70314;BME280;57725;47.526;18.986;2023-04-21T06:36:17;99822.81;;;13.63;95.53
70314;BME280;57725;47.526;18.986;2023-04-21T06:38:47;99832.22;;;13.67;95.69
70314;BME280;57725;47.526;18.986;2023-04-21T06:41:13;99825.19;;;13.67;95.91
70314;BME280;57725;47.526;18.986;2023-04-21T06:43:43;99832.06;;;13.70;95.88
70314;BME280;57725;47.526;18.986;2023-04-21T06:46:08;99827.66;;;13.70;96.12
70314;BME280;57725;47.526;18.986;2023-04-21T06:48:34;99830.09;;;13.73;96.25
70314;BME280;57725;47.526;18.986;2023-04-21T06:51:00;99820.44;;;13.74;96.11
70314;BME280;57725;47.526;18.986;2023-04-21T06:53:26;99826.47;;;13.76;96.29
70314;BME280;57725;47.526;18.986;2023-04-21T06:55:52;99825.59;;;13.75;96.17
70314;BME280;57725;47.526;18.986;2023-04-21T06:58:20;99826.47;;;13.76;96.21
70314;BME280;57725;47.526;18.986;2023-04-21T07:00:47;99822.06;;;13.76;96.44
70314;BME280;57725;47.526;18.986;2023-04-21T07:03:13;99830.78;;;13.77;96.50
70314;BME280;57725;47.526;18.986;2023-04-21T07:05:41;99821.19;;;13.76;96.36
70314;BME280;57725;47.526;18.986;2023-04-21T07:08:06;99822.91;;;13.77;96.39
70314;BME280;57725;47.526;18.986;2023-04-21T07:10:32;99813.31;;;13.76;96.56
70314;BME280;57725;47.526;18.986;2023-04-21T07:12:57;99818.56;;;13.76;96.30
70314;BME280;57725;47.526;18.986;2023-04-21T07:15:22;99817.72;;;13.75;96.10
70314;BME280;57725;47.526;18.986;2023-04-21T07:17:48;99816.78;;;13.76;96.42
70314;BME280;57725;47.526;18.986;2023-04-21T07:20:13;99817.72;;;13.75;96.13
70314;BME280;57725;47.526;18.986;2023-04-21T07:22:39;99813.31;;;13.76;96.40
70314;BME280;57725;47.526;18.986;2023-04-21T07:25:05;99819.41;;;13.76;96.15
70314;BME280;57725;47.526;18.986;2023-04-21T07:27:36;99822.97;;;13.75;96.10
70314;BME280;57725;47.526;18.986;2023-04-21T07:30:03;99811.72;;;13.73;96.00
70314;BME280;57725;47.526;18.986;2023-04-21T07:32:29;99809.94;;;13.74;96.07
70314;BME280;57725;47.526;18.986;2023-04-21T07:34:54;99822.22;;;13.73;95.55
70314;BME280;57725;47.526;18.986;2023-04-21T07:37:29;99806.66;;;13.70;95.66
70314;BME280;57725;47.526;18.986;2023-04-21T07:39:54;99816.22;;;13.71;95.74
70314;BME280;57725;47.526;18.986;2023-04-21T07:42:22;99812.75;;;13.71;95.81
70314;BME280;57725;47.526;18.986;2023-04-21T07:44:48;99818.00;;;13.71;96.17
70314;BME280;57725;47.526;18.986;2023-04-21T07:47:16;99822.41;;;13.70;95.94
70314;BME280;57725;47.526;18.986;2023-04-21T07:49:42;99812.84;;;13.69;95.91
70314;BME280;57725;47.526;18.986;2023-04-21T07:52:07;99822.50;;;13.69;95.89
70314;BME280;57725;47.526;18.986;2023-04-21T07:54:33;99812.91;;;13.68;95.79
70314;BME280;57725;47.526;18.986;2023-04-21T07:56:58;99818.16;;;13.68;95.89
70314;BME280;57725;47.526;18.986;2023-04-21T07:59:24;99818.16;;;13.68;95.87
70314;BME280;57725;47.526;18.986;2023-04-21T08:01:51;99816.38;;;13.68;95.63
70314;BME280;57725;47.526;18.986;2023-04-21T08:04:20;99817.31;;;13.67;95.46
70314;BME280;57725;47.526;18.986;2023-04-21T08:06:45;99807.75;;;13.66;95.45
70314;BME280;57725;47.526;18.986;2023-04-21T08:09:11;99819.09;;;13.67;95.43
70314;BME280;57725;47.526;18.986;2023-04-21T08:11:37;99815.53;;;13.68;95.28
70314;BME280;57725;47.526;18.986;2023-04-21T08:14:05;99811.13;;;13.68;95.08
70314;BME280;57725;47.526;18.986;2023-04-21T08:16:31;99806.81;;;13.67;95.26
70314;BME280;57725;47.526;18.986;2023-04-21T08:18:56;99805.88;;;13.68;95.11
70314;BME280;57725;47.526;18.986;2023-04-21T08:21:22;99808.50;;;13.68;95.11
70314;BME280;57725;47.526;18.986;2023-04-21T08:23:51;99804.09;;;13.69;95.18
70314;BME280;57725;47.526;18.986;2023-04-21T08:26:21;99807.56;;;13.69;94.73
70314;BME280;57725;47.526;18.986;2023-04-21T08:28:49;99811.06;;;13.70;94.84
70314;BME280;57725;47.526;18.986;2023-04-21T08:31:17;99807.56;;;13.69;94.89
70314;BME280;57725;47.526;18.986;2023-04-21T08:33:44;99799.69;;;13.69;94.78
70314;BME280;57725;47.526;18.986;2023-04-21T08:36:13;99805.81;;;13.70;94.60
70314;BME280;57725;47.526;18.986;2023-04-21T08:38:42;99806.66;;;13.70;94.56
70314;BME280;57725;47.526;18.986;2023-04-21T08:41:08;99804.88;;;13.71;94.43
70314;BME280;57725;47.526;18.986;2023-04-21T08:43:33;99806.66;;;13.70;94.64
70314;BME280;57725;47.526;18.986;2023-04-21T08:45:59;99810.13;;;13.71;94.36
70314;BME280;57725;47.526;18.986;2023-04-21T08:48:37;99802.25;;;13.71;94.45
70314;BME280;57725;47.526;18.986;2023-04-21T08:51:05;99796.78;;;13.74;94.24
70314;BME280;57725;47.526;18.986;2023-04-21T08:53:34;99804.78;;;13.72;94.35
70314;BME280;57725;47.526;18.986;2023-04-21T08:55:59;99798.69;;;13.72;94.13
70314;BME280;57725;47.526;18.986;2023-04-21T08:58:27;99805.53;;;13.74;94.12
70314;BME280;57725;47.526;18.986;2023-04-21T09:00:55;99793.22;;;13.75;94.08
70314;BME280;57725;47.526;18.986;2023-04-21T09:03:23;99801.88;;;13.77;94.26
70314;BME280;57725;47.526;18.986;2023-04-21T09:05:57;99791.38;;;13.77;93.97
70314;BME280;57725;47.526;18.986;2023-04-21T09:08:25;99794.00;;;13.77;94.11
70314;BME280;57725;47.526;18.986;2023-04-21T09:10:55;99795.69;;;13.78;93.87
70314;BME280;57725;47.526;18.986;2023-04-21T09:13:30;99795.59;;;13.80;94.06
70314;BME280;57725;47.526;18.986;2023-04-21T09:16:01;99790.28;;;13.81;93.86
70314;BME280;57725;47.526;18.986;2023-04-21T09:18:29;99772.72;;;13.82;93.89
70314;BME280;57725;47.526;18.986;2023-04-21T09:21:12;99781.47;;;13.82;93.98
70314;BME280;57725;47.526;18.986;2023-04-21T09:23:42;99785.78;;;13.83;93.96
70314;BME280;57725;47.526;18.986;2023-04-21T09:26:10;99781.38;;;13.84;93.86
70314;BME280;57725;47.526;18.986;2023-04-21T09:28:44;99773.38;;;13.85;93.60
70314;BME280;57725;47.526;18.986;2023-04-21T09:31:16;99768.97;;;13.86;93.71
70314;BME280;57725;47.526;18.986;2023-04-21T09:33:52;99771.59;;;13.86;93.88
70314;BME280;57725;47.526;18.986;2023-04-21T09:36:28;99772.44;;;13.86;93.87
70314;BME280;57725;47.526;18.986;2023-04-21T09:41:20;99765.31;;;13.88;93.92
70314;BME280;57725;47.526;18.986;2023-04-21T09:43:46;99766.94;;;13.91;94.03
70314;BME280;57725;47.526;18.986;2023-04-21T09:46:18;99765.16;;;13.91;94.09
70314;BME280;57725;47.526;18.986;2023-04-21T09:48:45;99760.66;;;13.93;93.96
70314;BME280;57725;47.526;18.986;2023-04-21T09:51:14;99760.66;;;13.93;93.70
70314;BME280;57725;47.526;18.986;2023-04-21T09:53:41;99764.97;;;13.94;93.69
70314;BME280;57725;47.526;18.986;2023-04-21T09:56:14;99762.28;;;13.96;93.88
70314;BME280;57725;47.526;18.986;2023-04-21T09:58:46;99757.00;;;13.96;93.91
70314;BME280;57725;47.526;18.986;2023-04-21T10:01:14;99749.84;;;13.98;93.84
70314;BME280;57725;47.526;18.986;2023-04-21T10:03:43;99741.97;;;13.98;93.68
70314;BME280;57725;47.526;18.986;2023-04-21T10:06:11;99764.59;;;14.00;93.70
70314;BME280;57725;47.526;18.986;2023-04-21T10:08:39;99753.16;;;14.01;93.52
70314;BME280;57725;47.526;18.986;2023-04-21T10:11:08;99752.16;;;14.04;93.57
70314;BME280;57725;47.526;18.986;2023-04-21T10:13:37;99747.72;;;14.04;93.78
70314;BME280;57725;47.526;18.986;2023-04-21T10:16:11;99750.19;;;14.07;93.80
70314;BME280;57725;47.526;18.986;2023-04-21T10:18:41;99743.25;;;14.06;93.70
70314;BME280;57725;47.526;18.986;2023-04-21T10:21:18;99734.41;;;14.07;93.77
70314;BME280;57725;47.526;18.986;2023-04-21T10:23:51;99739.56;;;14.09;93.80
70314;BME280;57725;47.526;18.986;2023-04-21T10:26:24;99736.00;;;14.10;93.65
70314;BME280;57725;47.526;18.986;2023-04-21T10:28:55;99739.38;;;14.12;93.75
70314;BME280;57725;47.526;18.986;2023-04-21T10:36:31;99727.00;;;14.14;93.63
70314;BME280;57725;47.526;18.986;2023-04-21T10:39:00;99728.59;;;14.17;93.73
70314;BME280;57725;47.526;18.986;2023-04-21T10:41:29;99721.47;;;14.19;93.66
70314;BME280;57725;47.526;18.986;2023-04-21T10:46:49;99717.78;;;14.21;93.75
70314;BME280;57725;47.526;18.986;2023-04-21T10:49:23;99715.16;;;14.21;93.65
70314;BME280;57725;47.526;18.986;2023-04-21T10:57:15;99698.38;;;14.24;93.33
70314;BME280;57725;47.526;18.986;2023-04-21T10:59:41;99703.44;;;14.27;93.13
70314;BME280;57725;47.526;18.986;2023-04-21T11:02:14;99704.28;;;14.27;93.31
70314;BME280;57725;47.526;18.986;2023-04-21T11:04:42;99702.44;;;14.29;93.16
70314;BME280;57725;47.526;18.986;2023-04-21T11:09:56;99696.13;;;14.32;93.14
70314;BME280;57725;47.526;18.986;2023-04-21T11:12:25;99689.91;;;14.33;93.08
70314;BME280;57725;47.526;18.986;2023-04-21T11:14:51;99695.94;;;14.35;93.05
70314;BME280;57725;47.526;18.986;2023-04-21T11:17:18;99693.22;;;14.36;92.87
70314;BME280;57725;47.526;18.986;2023-04-21T11:19:45;99692.28;;;14.37;93.00
70314;BME280;57725;47.526;18.986;2023-04-21T11:22:18;99685.31;;;14.36;93.02
70314;BME280;57725;47.526;18.986;2023-04-21T11:24:48;99692.13;;;14.40;92.89
70314;BME280;57725;47.526;18.986;2023-04-21T11:27:17;99693.81;;;14.41;92.88
70314;BME280;57725;47.526;18.986;2023-04-21T11:29:47;99687.72;;;14.41;92.81
70314;BME280;57725;47.526;18.986;2023-04-21T11:32:15;99684.88;;;14.44;93.16
70314;BME280;57725;47.526;18.986;2023-04-21T11:34:41;99685.72;;;14.44;92.92
70314;BME280;57725;47.526;18.986;2023-04-21T11:37:08;99685.63;;;14.46;93.00
70314;BME280;57725;47.526;18.986;2023-04-21T11:39:39;99685.63;;;14.46;92.93
70314;BME280;57725;47.526;18.986;2023-04-21T11:42:07;99678.59;;;14.46;93.05
70314;BME280;57725;47.526;18.986;2023-04-21T11:44:41;99688.16;;;14.47;92.85
70314;BME280;57725;47.526;18.986;2023-04-21T11:49:52;99685.34;;;14.51;93.52
70314;BME280;57725;47.526;18.986;2023-04-21T11:52:29;99678.31;;;14.51;93.06
70314;BME280;57725;47.526;18.986;2023-04-21T11:55:02;99675.69;;;14.51;93.08
70314;BME280;57725;47.526;18.986;2023-04-21T11:57:31;99680.00;;;14.52;93.05
70314;BME280;57725;47.526;18.986;2023-04-21T11:59:58;99672.84;;;14.54;93.00
70314;BME280;57725;47.526;18.986;2023-04-21T12:02:31;99675.47;;;14.54;92.89
70314;BME280;57725;47.526;18.986;2023-04-21T12:07:23;99670.97;;;14.56;92.96
70314;BME280;57725;47.526;18.986;2023-04-21T12:09:52;99676.13;;;14.58;93.02
70314;BME280;57725;47.526;18.986;2023-04-21T12:12:17;99672.66;;;14.57;93.11
70314;BME280;57725;47.526;18.986;2023-04-21T12:14:45;99674.25;;;14.60;92.93
70314;BME280;57725;47.526;18.986;2023-04-21T12:17:10;99669.00;;;14.60;92.80
70314;BME280;57725;47.526;18.986;2023-04-21T12:19:36;99666.28;;;14.61;92.76
70314;BME280;57725;47.526;18.986;2023-04-21T12:22:10;99671.44;;;14.63;92.83
70314;BME280;57725;47.526;18.986;2023-04-21T12:24:36;99661.78;;;14.63;93.10
70314;BME280;57725;47.526;18.986;2023-04-21T12:27:02;99662.63;;;14.64;93.18
70314;BME280;57725;47.526;18.986;2023-04-21T12:29:28;99645.06;;;14.64;92.99
70314;BME280;57725;47.526;18.986;2023-04-21T12:31:56;99644.06;;;14.65;92.88
70314;BME280;57725;47.526;18.986;2023-04-21T12:34:21;99643.97;;;14.67;92.69
70314;BME280;57725;47.526;18.986;2023-04-21T12:36:46;99647.38;;;14.69;92.77
70314;BME280;57725;47.526;18.986;2023-04-21T12:39:14;99650.00;;;14.69;93.17
70314;BME280;57725;47.526;18.986;2023-04-21T12:41:43;99655.16;;;14.70;92.87
70314;BME280;57725;47.526;18.986;2023-04-21T12:44:09;99653.38;;;14.71;92.96
70314;BME280;57725;47.526;18.986;2023-04-21T12:46:35;99651.59;;;14.71;92.69
70314;BME280;57725;47.526;18.986;2023-04-21T12:49:05;99646.34;;;14.71;92.52
70314;BME280;57725;47.526;18.986;2023-04-21T12:51:38;99648.03;;;14.72;92.79
70314;BME280;57725;47.526;18.986;2023-04-21T12:54:04;99644.47;;;14.73;92.69
70314;BME280;57725;47.526;18.986;2023-04-21T12:56:32;99646.16;;;14.74;92.60
70314;BME280;57725;47.526;18.986;2023-04-21T12:58:58;99650.47;;;14.75;92.52
70314;BME280;57725;47.526;18.986;2023-04-21T13:01:23;99649.63;;;14.75;92.62
70314;BME280;57725;47.526;18.986;2023-04-21T13:03:51;99645.22;;;14.75;92.54
70314;BME280;57725;47.526;18.986;2023-04-21T13:06:17;99639.00;;;14.76;92.45
70314;BME280;57725;47.526;18.986;2023-04-21T13:08:42;99642.47;;;14.77;92.41
70314;BME280;57725;47.526;18.986;2023-04-21T13:11:07;99641.50;;;14.78;92.54
70314;BME280;57725;47.526;18.986;2023-04-21T13:13:33;99640.47;;;14.80;92.89
70314;BME280;57725;47.526;18.986;2023-04-21T13:16:01;99641.44;;;14.79;92.76